sensor_id;sensor_type;location;lat;lon;timestamp;P1;durP1;ratioP1;P2;durP2;ratioP2
75218;SDS011;63801;49.414;19.474;2023-02-11T00:00:18;70.93;;;24.92;;
75218;SDS011;63801;49.414;19.474;2023-02-11T00:02:19;79.68;;;27.63;;
75218;SDS011;63801;49.414;19.474;2023-02-11T00:04:19;94.65;;;29.77;;
75218;SDS011;63801;49.414;19.474;2023-02-11T00:06:19;91.95;;;30.23;;
75218;SDS011;63801;49.414;19.474;2023-02-11T00:08:20;83.47;;;29.30;;
75218;SDS011;63801;49.414;19.474;2023-02-11T00:10:20;70.47;;;25.38;;
75218;SDS011;63801;49.414;19.474;2023-02-11T00:12:21;80.25;;;27.77;;
75218;SDS011;63801;49.414;19.474;2023-02-11T00:14:21;82.40;;;29.52;;
75218;SDS011;63801;49.414;19.474;2023-02-11T00:16:22;90.03;;;29.75;;
75218;SDS011;63801;49.414;19.474;2023-02-11T00:18:22;94.97;;;33.03;;
75218;SDS011;63801;49.414;19.474;2023-02-11T00:20:23;101.43;;;35.55;;
75218;SDS011;63801;49.414;19.474;2023-02-11T00:22:23;101.53;;;35.28;;
75218;SDS011;63801;49.414;19.474;2023-02-11T00:24:23;81.82;;;28.65;;
75218;SDS011;63801;49.414;19.474;2023-02-11T00:26:24;67.63;;;23.35;;
75218;SDS011;63801;49.414;19.474;2023-02-11T00:28:27;75.05;;;27.20;;
75218;SDS011;63801;49.414;19.474;2023-02-11T00:30:27;104.18;;;33.78;;
75218;SDS011;63801;49.414;19.474;2023-02-11T00:32:27;104.22;;;35.60;;
75218;SDS011;63801;49.414;19.474;2023-02-11T00:34:28;89.88;;;31.75;;
75218;SDS011;63801;49.414;19.474;2023-02-11T00:36:28;82.93;;;28.45;;
75218;SDS011;63801;49.414;19.474;2023-02-11T00:38:29;67.80;;;26.70;;
75218;SDS011;63801;49.414;19.474;2023-02-11T00:40:29;100.22;;;34.80;;
75218;SDS011;63801;49.414;19.474;2023-02-11T00:42:29;92.85;;;32.90;;
75218;SDS011;63801;49.414;19.474;2023-02-11T00:44:30;110.72;;;35.67;;
75218;SDS011;63801;49.414;19.474;2023-02-11T00:46:30;114.25;;;38.38;;
75218;SDS011;63801;49.414;19.474;2023-02-11T00:48:31;114.60;;;38.45;;
75218;SDS011;63801;49.414;19.474;2023-02-11T00:50:31;123.28;;;39.63;;
75218;SDS011;63801;49.414;19.474;2023-02-11T00:52:33;116.05;;;40.15;;
75218;SDS011;63801;49.414;19.474;2023-02-11T00:54:33;121.10;;;42.28;;
75218;SDS011;63801;49.414;19.474;2023-02-11T00:56:34;119.88;;;39.83;;
75218;SDS011;63801;49.414;19.474;2023-02-11T00:58:34;132.57;;;41.92;;
75218;SDS011;63801;49.414;19.474;2023-02-11T01:00:35;130.35;;;45.15;;
75218;SDS011;63801;49.414;19.474;2023-02-11T01:02:35;124.78;;;40.90;;
75218;SDS011;63801;49.414;19.474;2023-02-11T01:04:36;120.28;;;39.22;;
75218;SDS011;63801;49.414;19.474;2023-02-11T01:06:36;115.05;;;41.53;;
75218;SDS011;63801;49.414;19.474;2023-02-11T01:08:36;128.38;;;43.38;;
75218;SDS011;63801;49.414;19.474;2023-02-11T01:10:37;98.63;;;34.67;;
75218;SDS011;63801;49.414;19.474;2023-02-11T01:12:38;92.97;;;28.15;;
75218;SDS011;63801;49.414;19.474;2023-02-11T01:14:39;79.80;;;27.98;;
75218;SDS011;63801;49.414;19.474;2023-02-11T01:16:39;73.05;;;23.83;;
75218;SDS011;63801;49.414;19.474;2023-02-11T01:18:40;75.85;;;24.23;;
75218;SDS011;63801;49.414;19.474;2023-02-11T01:20:43;55.45;;;19.98;;
75218;SDS011;63801;49.414;19.474;2023-02-11T01:22:43;47.30;;;17.25;;
75218;SDS011;63801;49.414;19.474;2023-02-11T01:24:44;54.55;;;20.40;;
75218;SDS011;63801;49.414;19.474;2023-02-11T01:26:44;39.45;;;15.50;;
75218;SDS011;63801;49.414;19.474;2023-02-11T01:28:44;42.08;;;15.63;;
75218;SDS011;63801;49.414;19.474;2023-02-11T01:30:45;44.55;;;18.50;;
75218;SDS011;63801;49.414;19.474;2023-02-11T01:32:45;46.53;;;17.10;;
75218;SDS011;63801;49.414;19.474;2023-02-11T01:34:45;46.10;;;17.63;;
75218;SDS011;63801;49.414;19.474;2023-02-11T01:36:45;48.95;;;18.42;;
75218;SDS011;63801;49.414;19.474;2023-02-11T01:38:46;44.80;;;14.75;;
75218;SDS011;63801;49.414;19.474;2023-02-11T01:40:47;39.75;;;15.93;;
75218;SDS011;63801;49.414;19.474;2023-02-11T01:42:50;44.88;;;17.40;;
75218;SDS011;63801;49.414;19.474;2023-02-11T01:44:51;42.33;;;17.08;;
75218;SDS011;63801;49.414;19.474;2023-02-11T01:46:53;43.30;;;17.92;;
75218;SDS011;63801;49.414;19.474;2023-02-11T01:48:54;44.20;;;17.30;;
75218;SDS011;63801;49.414;19.474;2023-02-11T01:51:17;43.58;;;15.70;;
75218;SDS011;63801;49.414;19.474;2023-02-11T01:53:22;48.67;;;18.70;;
75218;SDS011;63801;49.414;19.474;2023-02-11T01:55:42;46.03;;;17.35;;
75218;SDS011;63801;49.414;19.474;2023-02-11T01:58:01;47.10;;;16.95;;
75218;SDS011;63801;49.414;19.474;2023-02-11T02:02:10;38.22;;;14.10;;
75218;SDS011;63801;49.414;19.474;2023-02-11T02:04:14;40.33;;;16.13;;
75218;SDS011;63801;49.414;19.474;2023-02-11T02:06:53;44.00;;;16.05;;
75218;SDS011;63801;49.414;19.474;2023-02-11T02:09:05;35.28;;;14.80;;
75218;SDS011;63801;49.414;19.474;2023-02-11T02:11:10;41.75;;;15.13;;
75218;SDS011;63801;49.414;19.474;2023-02-11T02:13:11;46.78;;;15.07;;
75218;SDS011;63801;49.414;19.474;2023-02-11T02:17:30;36.78;;;15.95;;
75218;SDS011;63801;49.414;19.474;2023-02-11T02:19:47;40.55;;;16.48;;
75218;SDS011;63801;49.414;19.474;2023-02-11T02:31:29;43.70;;;17.25;;
75218;SDS011;63801;49.414;19.474;2023-02-11T02:34:18;36.45;;;14.48;;
75218;SDS011;63801;49.414;19.474;2023-02-11T02:36:37;40.88;;;17.50;;
75218;SDS011;63801;49.414;19.474;2023-02-11T02:40:49;41.90;;;16.30;;
75218;SDS011;63801;49.414;19.474;2023-02-11T02:42:53;42.25;;;16.50;;
75218;SDS011;63801;49.414;19.474;2023-02-11T02:44:55;37.50;;;15.90;;
75218;SDS011;63801;49.414;19.474;2023-02-11T02:46:55;43.90;;;17.10;;
75218;SDS011;63801;49.414;19.474;2023-02-11T02:48:56;38.92;;;15.35;;
75218;SDS011;63801;49.414;19.474;2023-02-11T02:51:01;45.03;;;17.67;;
75218;SDS011;63801;49.414;19.474;2023-02-11T02:53:27;41.95;;;16.08;;
75218;SDS011;63801;49.414;19.474;2023-02-11T02:55:33;33.45;;;14.63;;
75218;SDS011;63801;49.414;19.474;2023-02-11T03:02:16;39.53;;;16.80;;
75218;SDS011;63801;49.414;19.474;2023-02-11T03:04:34;39.55;;;15.18;;
75218;SDS011;63801;49.414;19.474;2023-02-11T03:08:50;37.92;;;14.50;;
75218;SDS011;63801;49.414;19.474;2023-02-11T03:10:55;42.30;;;16.80;;
75218;SDS011;63801;49.414;19.474;2023-02-11T03:12:58;40.85;;;15.93;;
75218;SDS011;63801;49.414;19.474;2023-02-11T03:15:00;39.92;;;16.92;;
75218;SDS011;63801;49.414;19.474;2023-02-11T03:17:04;44.70;;;16.08;;
75218;SDS011;63801;49.414;19.474;2023-02-11T03:19:10;43.33;;;16.92;;
75218;SDS011;63801;49.414;19.474;2023-02-11T03:21:13;42.00;;;15.88;;
75218;SDS011;63801;49.414;19.474;2023-02-11T03:23:17;41.92;;;16.67;;
75218;SDS011;63801;49.414;19.474;2023-02-11T03:25:21;45.03;;;18.05;;
75218;SDS011;63801;49.414;19.474;2023-02-11T03:27:31;47.42;;;17.67;;
75218;SDS011;63801;49.414;19.474;2023-02-11T03:34:17;46.72;;;17.73;;
75218;SDS011;63801;49.414;19.474;2023-02-11T03:36:25;86.70;;;28.02;;
75218;SDS011;63801;49.414;19.474;2023-02-11T03:38:36;62.85;;;24.63;;
75218;SDS011;63801;49.414;19.474;2023-02-11T03:40:38;71.03;;;27.75;;
75218;SDS011;63801;49.414;19.474;2023-02-11T03:42:43;77.70;;;28.15;;
75218;SDS011;63801;49.414;19.474;2023-02-11T03:44:51;63.25;;;25.80;;
75218;SDS011;63801;49.414;19.474;2023-02-11T03:46:58;58.42;;;25.27;;
75218;SDS011;63801;49.414;19.474;2023-02-11T03:49:02;44.72;;;18.35;;
75218;SDS011;63801;49.414;19.474;2023-02-11T03:51:08;47.17;;;17.85;;
75218;SDS011;63801;49.414;19.474;2023-02-11T03:53:11;43.95;;;16.15;;
75218;SDS011;63801;49.414;19.474;2023-02-11T03:55:18;42.00;;;17.13;;
75218;SDS011;63801;49.414;19.474;2023-02-11T03:57:20;45.75;;;17.02;;
75218;SDS011;63801;49.414;19.474;2023-02-11T03:59:20;87.70;;;30.67;;
75218;SDS011;63801;49.414;19.474;2023-02-11T04:01:21;80.35;;;29.45;;
75218;SDS011;63801;49.414;19.474;2023-02-11T04:03:21;55.85;;;20.75;;
75218;SDS011;63801;49.414;19.474;2023-02-11T04:05:21;45.42;;;18.27;;
75218;SDS011;63801;49.414;19.474;2023-02-11T04:07:22;50.00;;;19.13;;
75218;SDS011;63801;49.414;19.474;2023-02-11T04:09:22;49.03;;;20.50;;
75218;SDS011;63801;49.414;19.474;2023-02-11T04:11:22;99.20;;;36.63;;
75218;SDS011;63801;49.414;19.474;2023-02-11T04:13:23;76.40;;;28.83;;
75218;SDS011;63801;49.414;19.474;2023-02-11T04:15:24;72.10;;;29.65;;
75218;SDS011;63801;49.414;19.474;2023-02-11T04:17:24;57.20;;;23.13;;
75218;SDS011;63801;49.414;19.474;2023-02-11T04:19:25;45.20;;;16.45;;
75218;SDS011;63801;49.414;19.474;2023-02-11T04:21:25;42.88;;;16.45;;
75218;SDS011;63801;49.414;19.474;2023-02-11T04:23:25;35.72;;;14.82;;
75218;SDS011;63801;49.414;19.474;2023-02-11T04:25:26;34.03;;;14.90;;
75218;SDS011;63801;49.414;19.474;2023-02-11T04:27:26;38.05;;;15.68;;
75218;SDS011;63801;49.414;19.474;2023-02-11T04:29:26;47.80;;;17.10;;
75218;SDS011;63801;49.414;19.474;2023-02-11T04:31:27;44.47;;;17.70;;
75218;SDS011;63801;49.414;19.474;2023-02-11T04:33:27;53.80;;;19.27;;
75218;SDS011;63801;49.414;19.474;2023-02-11T04:35:28;35.03;;;14.98;;
75218;SDS011;63801;49.414;19.474;2023-02-11T04:37:28;39.60;;;15.82;;
75218;SDS011;63801;49.414;19.474;2023-02-11T04:39:29;35.53;;;14.00;;
75218;SDS011;63801;49.414;19.474;2023-02-11T04:41:29;38.28;;;14.10;;
75218;SDS011;63801;49.414;19.474;2023-02-11T04:43:29;34.55;;;13.15;;
75218;SDS011;63801;49.414;19.474;2023-02-11T04:45:30;32.97;;;13.90;;
75218;SDS011;63801;49.414;19.474;2023-02-11T04:47:30;38.22;;;13.25;;
75218;SDS011;63801;49.414;19.474;2023-02-11T04:49:30;31.30;;;12.90;;
75218;SDS011;63801;49.414;19.474;2023-02-11T04:51:31;32.15;;;12.88;;
75218;SDS011;63801;49.414;19.474;2023-02-11T04:53:31;31.05;;;13.18;;
75218;SDS011;63801;49.414;19.474;2023-02-11T04:55:31;30.45;;;12.52;;
75218;SDS011;63801;49.414;19.474;2023-02-11T04:57:32;35.53;;;12.75;;
75218;SDS011;63801;49.414;19.474;2023-02-11T04:59:32;36.38;;;14.50;;
75218;SDS011;63801;49.414;19.474;2023-02-11T05:01:32;35.00;;;13.48;;
75218;SDS011;63801;49.414;19.474;2023-02-11T05:03:33;28.30;;;13.18;;
75218;SDS011;63801;49.414;19.474;2023-02-11T05:05:36;33.30;;;13.32;;
75218;SDS011;63801;49.414;19.474;2023-02-11T05:07:38;32.83;;;12.95;;
75218;SDS011;63801;49.414;19.474;2023-02-11T05:09:38;32.53;;;13.32;;
75218;SDS011;63801;49.414;19.474;2023-02-11T05:11:39;31.15;;;12.35;;
75218;SDS011;63801;49.414;19.474;2023-02-11T05:13:40;33.47;;;12.50;;
75218;SDS011;63801;49.414;19.474;2023-02-11T05:15:40;32.67;;;11.88;;
75218;SDS011;63801;49.414;19.474;2023-02-11T05:17:40;29.25;;;12.07;;
75218;SDS011;63801;49.414;19.474;2023-02-11T05:19:41;32.70;;;11.85;;
75218;SDS011;63801;49.414;19.474;2023-02-11T05:21:41;28.50;;;11.95;;
75218;SDS011;63801;49.414;19.474;2023-02-11T05:23:42;30.08;;;12.68;;
75218;SDS011;63801;49.414;19.474;2023-02-11T05:25:43;30.27;;;11.68;;
75218;SDS011;63801;49.414;19.474;2023-02-11T05:27:43;32.95;;;12.82;;
75218;SDS011;63801;49.414;19.474;2023-02-11T05:29:44;31.88;;;11.32;;
75218;SDS011;63801;49.414;19.474;2023-02-11T05:31:45;30.25;;;10.98;;
75218;SDS011;63801;49.414;19.474;2023-02-11T05:33:45;33.03;;;12.63;;
75218;SDS011;63801;49.414;19.474;2023-02-11T05:35:45;30.80;;;13.48;;
75218;SDS011;63801;49.414;19.474;2023-02-11T05:37:45;32.15;;;12.05;;
75218;SDS011;63801;49.414;19.474;2023-02-11T05:39:46;28.90;;;11.80;;
75218;SDS011;63801;49.414;19.474;2023-02-11T05:41:47;29.00;;;12.63;;
75218;SDS011;63801;49.414;19.474;2023-02-11T05:43:47;32.05;;;12.38;;
75218;SDS011;63801;49.414;19.474;2023-02-11T05:45:50;30.38;;;11.95;;
75218;SDS011;63801;49.414;19.474;2023-02-11T05:47:50;29.58;;;11.73;;
75218;SDS011;63801;49.414;19.474;2023-02-11T05:49:51;23.48;;;9.95;;
75218;SDS011;63801;49.414;19.474;2023-02-11T05:51:52;31.40;;;12.50;;
75218;SDS011;63801;49.414;19.474;2023-02-11T05:53:52;28.92;;;11.85;;
75218;SDS011;63801;49.414;19.474;2023-02-11T05:55:53;29.58;;;11.75;;
75218;SDS011;63801;49.414;19.474;2023-02-11T05:57:53;29.05;;;11.40;;
75218;SDS011;63801;49.414;19.474;2023-02-11T05:59:53;30.70;;;12.38;;
75218;SDS011;63801;49.414;19.474;2023-02-11T06:01:54;30.05;;;12.15;;
75218;SDS011;63801;49.414;19.474;2023-02-11T06:03:54;29.88;;;10.98;;
75218;SDS011;63801;49.414;19.474;2023-02-11T06:05:54;32.22;;;12.40;;
75218;SDS011;63801;49.414;19.474;2023-02-11T06:07:55;28.27;;;12.07;;
75218;SDS011;63801;49.414;19.474;2023-02-11T06:09:55;31.83;;;13.48;;
75218;SDS011;63801;49.414;19.474;2023-02-11T06:11:56;34.45;;;12.77;;
75218;SDS011;63801;49.414;19.474;2023-02-11T06:13:56;27.48;;;11.57;;
75218;SDS011;63801;49.414;19.474;2023-02-11T06:15:57;28.02;;;11.38;;
75218;SDS011;63801;49.414;19.474;2023-02-11T06:17:58;23.93;;;11.03;;
75218;SDS011;63801;49.414;19.474;2023-02-11T06:19:59;28.98;;;13.10;;
75218;SDS011;63801;49.414;19.474;2023-02-11T06:22:01;27.05;;;11.60;;
75218;SDS011;63801;49.414;19.474;2023-02-11T06:24:02;27.33;;;11.52;;
75218;SDS011;63801;49.414;19.474;2023-02-11T06:26:03;27.20;;;12.88;;
75218;SDS011;63801;49.414;19.474;2023-02-11T06:28:05;33.65;;;12.15;;
75218;SDS011;63801;49.414;19.474;2023-02-11T06:30:06;29.90;;;12.07;;
75218;SDS011;63801;49.414;19.474;2023-02-11T06:32:07;25.55;;;11.15;;
75218;SDS011;63801;49.414;19.474;2023-02-11T06:34:07;28.35;;;13.20;;
75218;SDS011;63801;49.414;19.474;2023-02-11T06:36:13;31.38;;;12.18;;
75218;SDS011;63801;49.414;19.474;2023-02-11T06:38:16;33.13;;;13.68;;
75218;SDS011;63801;49.414;19.474;2023-02-11T06:40:16;29.02;;;12.10;;
75218;SDS011;63801;49.414;19.474;2023-02-11T06:42:16;31.58;;;12.40;;
75218;SDS011;63801;49.414;19.474;2023-02-11T06:44:17;30.83;;;12.35;;
75218;SDS011;63801;49.414;19.474;2023-02-11T06:46:17;26.17;;;12.15;;
75218;SDS011;63801;49.414;19.474;2023-02-11T06:48:18;33.03;;;12.48;;
75218;SDS011;63801;49.414;19.474;2023-02-11T06:50:18;28.85;;;11.70;;
75218;SDS011;63801;49.414;19.474;2023-02-11T06:52:18;34.53;;;15.18;;
75218;SDS011;63801;49.414;19.474;2023-02-11T06:54:19;28.13;;;11.93;;
75218;SDS011;63801;49.414;19.474;2023-02-11T06:56:20;30.25;;;11.98;;
75218;SDS011;63801;49.414;19.474;2023-02-11T06:58:21;33.90;;;12.13;;
75218;SDS011;63801;49.414;19.474;2023-02-11T07:00:21;30.35;;;11.88;;
75218;SDS011;63801;49.414;19.474;2023-02-11T07:02:22;28.83;;;11.90;;
75218;SDS011;63801;49.414;19.474;2023-02-11T07:04:22;33.17;;;12.93;;
75218;SDS011;63801;49.414;19.474;2023-02-11T07:06:23;25.35;;;11.57;;
75218;SDS011;63801;49.414;19.474;2023-02-11T07:08:26;31.65;;;12.35;;
75218;SDS011;63801;49.414;19.474;2023-02-11T07:10:27;29.42;;;11.48;;
75218;SDS011;63801;49.414;19.474;2023-02-11T07:12:27;23.60;;;11.50;;
75218;SDS011;63801;49.414;19.474;2023-02-11T07:14:27;33.60;;;14.40;;
75218;SDS011;63801;49.414;19.474;2023-02-11T07:16:29;24.85;;;10.70;;
75218;SDS011;63801;49.414;19.474;2023-02-11T07:18:30;31.17;;;13.48;;
75218;SDS011;63801;49.414;19.474;2023-02-11T07:20:30;41.60;;;16.70;;
75218;SDS011;63801;49.414;19.474;2023-02-11T07:22:30;56.30;;;23.65;;
75218;SDS011;63801;49.414;19.474;2023-02-11T07:24:33;49.53;;;18.75;;
75218;SDS011;63801;49.414;19.474;2023-02-11T07:26:33;38.10;;;16.05;;
75218;SDS011;63801;49.414;19.474;2023-02-11T07:28:34;27.52;;;12.80;;
75218;SDS011;63801;49.414;19.474;2023-02-11T07:30:35;31.73;;;15.18;;
75218;SDS011;63801;49.414;19.474;2023-02-11T07:32:35;29.83;;;14.23;;
75218;SDS011;63801;49.414;19.474;2023-02-11T07:34:36;32.83;;;14.73;;
75218;SDS011;63801;49.414;19.474;2023-02-11T07:36:36;43.78;;;15.45;;
75218;SDS011;63801;49.414;19.474;2023-02-11T07:38:37;32.97;;;13.63;;
75218;SDS011;63801;49.414;19.474;2023-02-11T07:40:37;28.17;;;12.70;;
75218;SDS011;63801;49.414;19.474;2023-02-11T07:42:38;32.72;;;12.93;;
75218;SDS011;63801;49.414;19.474;2023-02-11T07:44:40;32.60;;;15.07;;
75218;SDS011;63801;49.414;19.474;2023-02-11T07:46:40;31.70;;;15.43;;
75218;SDS011;63801;49.414;19.474;2023-02-11T07:48:43;35.38;;;15.02;;
75218;SDS011;63801;49.414;19.474;2023-02-11T07:50:43;34.22;;;16.13;;
75218;SDS011;63801;49.414;19.474;2023-02-11T07:52:44;28.17;;;11.52;;
75218;SDS011;63801;49.414;19.474;2023-02-11T07:54:44;31.33;;;12.05;;
75218;SDS011;63801;49.414;19.474;2023-02-11T07:56:45;37.40;;;14.80;;
75218;SDS011;63801;49.414;19.474;2023-02-11T07:58:45;31.92;;;13.00;;
75218;SDS011;63801;49.414;19.474;2023-02-11T08:00:45;30.33;;;13.55;;
75218;SDS011;63801;49.414;19.474;2023-02-11T08:02:45;33.95;;;14.32;;
75218;SDS011;63801;49.414;19.474;2023-02-11T08:04:46;34.65;;;14.60;;
75218;SDS011;63801;49.414;19.474;2023-02-11T08:06:46;37.35;;;16.38;;
75218;SDS011;63801;49.414;19.474;2023-02-11T08:08:47;36.83;;;16.60;;
75218;SDS011;63801;49.414;19.474;2023-02-11T08:10:48;41.33;;;16.63;;
75218;SDS011;63801;49.414;19.474;2023-02-11T08:12:48;39.47;;;15.50;;
75218;SDS011;63801;49.414;19.474;2023-02-11T08:14:48;39.40;;;16.98;;
75218;SDS011;63801;49.414;19.474;2023-02-11T08:16:49;32.92;;;14.65;;
75218;SDS011;63801;49.414;19.474;2023-02-11T08:18:50;32.55;;;13.70;;
75218;SDS011;63801;49.414;19.474;2023-02-11T08:20:51;31.23;;;14.15;;
75218;SDS011;63801;49.414;19.474;2023-02-11T08:22:51;34.33;;;14.88;;
75218;SDS011;63801;49.414;19.474;2023-02-11T08:24:51;30.60;;;14.25;;
75218;SDS011;63801;49.414;19.474;2023-02-11T08:26:51;39.78;;;16.65;;
75218;SDS011;63801;49.414;19.474;2023-02-11T08:28:52;33.90;;;14.25;;
75218;SDS011;63801;49.414;19.474;2023-02-11T08:32:55;39.10;;;16.63;;
75218;SDS011;63801;49.414;19.474;2023-02-11T08:34:55;30.73;;;15.55;;
75218;SDS011;63801;49.414;19.474;2023-02-11T08:36:56;34.88;;;15.88;;
75218;SDS011;63801;49.414;19.474;2023-02-11T08:38:57;37.80;;;16.58;;
75218;SDS011;63801;49.414;19.474;2023-02-11T08:40:58;37.15;;;15.88;;
75218;SDS011;63801;49.414;19.474;2023-02-11T08:42:59;40.50;;;17.15;;
75218;SDS011;63801;49.414;19.474;2023-02-11T08:44:59;38.53;;;17.63;;
75218;SDS011;63801;49.414;19.474;2023-02-11T08:47:00;39.17;;;17.85;;
75218;SDS011;63801;49.414;19.474;2023-02-11T08:49:00;35.72;;;16.52;;
75218;SDS011;63801;49.414;19.474;2023-02-11T08:51:04;41.00;;;18.40;;
75218;SDS011;63801;49.414;19.474;2023-02-11T08:53:06;41.03;;;16.92;;
75218;SDS011;63801;49.414;19.474;2023-02-11T08:55:06;43.42;;;18.27;;
75218;SDS011;63801;49.414;19.474;2023-02-11T08:57:07;44.08;;;17.08;;
75218;SDS011;63801;49.414;19.474;2023-02-11T08:59:07;43.08;;;19.15;;
75218;SDS011;63801;49.414;19.474;2023-02-11T09:01:44;39.78;;;17.20;;
75218;SDS011;63801;49.414;19.474;2023-02-11T09:03:37;41.20;;;18.05;;
75218;SDS011;63801;49.414;19.474;2023-02-11T09:05:41;38.35;;;18.23;;
75218;SDS011;63801;49.414;19.474;2023-02-11T09:07:46;33.90;;;15.70;;
75218;SDS011;63801;49.414;19.474;2023-02-11T09:09:47;37.63;;;17.67;;
75218;SDS011;63801;49.414;19.474;2023-02-11T09:11:47;40.75;;;17.38;;
75218;SDS011;63801;49.414;19.474;2023-02-11T09:13:47;28.25;;;13.38;;
75218;SDS011;63801;49.414;19.474;2023-02-11T09:15:48;28.63;;;13.32;;
75218;SDS011;63801;49.414;19.474;2023-02-11T09:17:48;33.17;;;15.38;;
75218;SDS011;63801;49.414;19.474;2023-02-11T09:19:48;33.58;;;13.85;;
75218;SDS011;63801;49.414;19.474;2023-02-11T09:21:49;31.33;;;13.65;;
75218;SDS011;63801;49.414;19.474;2023-02-11T09:23:49;29.63;;;14.30;;
75218;SDS011;63801;49.414;19.474;2023-02-11T09:25:49;30.38;;;14.52;;
75218;SDS011;63801;49.414;19.474;2023-02-11T09:27:50;28.00;;;13.38;;
75218;SDS011;63801;49.414;19.474;2023-02-11T09:29:51;27.90;;;14.18;;
75218;SDS011;63801;49.414;19.474;2023-02-11T09:31:51;30.02;;;14.48;;
75218;SDS011;63801;49.414;19.474;2023-02-11T09:33:53;25.65;;;13.07;;
75218;SDS011;63801;49.414;19.474;2023-02-11T09:35:58;30.83;;;15.07;;
75218;SDS011;63801;49.414;19.474;2023-02-11T09:38:00;29.60;;;14.05;;
75218;SDS011;63801;49.414;19.474;2023-02-11T09:40:00;30.23;;;14.27;;
75218;SDS011;63801;49.414;19.474;2023-02-11T09:42:09;26.63;;;15.00;;
75218;SDS011;63801;49.414;19.474;2023-02-11T09:44:37;30.27;;;15.43;;
75218;SDS011;63801;49.414;19.474;2023-02-11T09:46:39;29.77;;;14.48;;
75218;SDS011;63801;49.414;19.474;2023-02-11T09:48:42;32.67;;;15.73;;
75218;SDS011;63801;49.414;19.474;2023-02-11T09:50:54;34.30;;;15.90;;
75218;SDS011;63801;49.414;19.474;2023-02-11T09:53:05;27.42;;;14.82;;
75218;SDS011;63801;49.414;19.474;2023-02-11T09:55:24;32.90;;;16.85;;
75218;SDS011;63801;49.414;19.474;2023-02-11T09:57:33;35.08;;;17.42;;
75218;SDS011;63801;49.414;19.474;2023-02-11T09:59:35;31.20;;;15.93;;
75218;SDS011;63801;49.414;19.474;2023-02-11T10:01:38;28.92;;;14.10;;
75218;SDS011;63801;49.414;19.474;2023-02-11T10:06:14;30.95;;;14.38;;
75218;SDS011;63801;49.414;19.474;2023-02-11T10:19:38;30.10;;;14.10;;
75218;SDS011;63801;49.414;19.474;2023-02-11T10:24:02;30.25;;;14.20;;
75218;SDS011;63801;49.414;19.474;2023-02-11T10:26:13;27.73;;;14.40;;
75218;SDS011;63801;49.414;19.474;2023-02-11T10:28:17;28.65;;;14.13;;
75218;SDS011;63801;49.414;19.474;2023-02-11T10:30:32;28.15;;;14.30;;
75218;SDS011;63801;49.414;19.474;2023-02-11T10:32:38;29.13;;;13.88;;
75218;SDS011;63801;49.414;19.474;2023-02-11T10:34:45;27.80;;;12.70;;
75218;SDS011;63801;49.414;19.474;2023-02-11T10:36:46;27.40;;;14.10;;
75218;SDS011;63801;49.414;19.474;2023-02-11T10:38:46;28.77;;;14.00;;
75218;SDS011;63801;49.414;19.474;2023-02-11T10:40:47;26.23;;;13.02;;
75218;SDS011;63801;49.414;19.474;2023-02-11T10:42:48;31.35;;;14.43;;
75218;SDS011;63801;49.414;19.474;2023-02-11T10:44:56;28.65;;;13.88;;
75218;SDS011;63801;49.414;19.474;2023-02-11T10:47:02;31.23;;;14.90;;
75218;SDS011;63801;49.414;19.474;2023-02-11T10:49:14;27.27;;;13.60;;
75218;SDS011;63801;49.414;19.474;2023-02-11T10:51:33;31.20;;;14.13;;
75218;SDS011;63801;49.414;19.474;2023-02-11T10:53:33;33.17;;;15.45;;
75218;SDS011;63801;49.414;19.474;2023-02-11T10:55:34;33.50;;;17.20;;
75218;SDS011;63801;49.414;19.474;2023-02-11T11:00:03;34.65;;;15.52;;
75218;SDS011;63801;49.414;19.474;2023-02-11T11:02:23;32.38;;;15.70;;
75218;SDS011;63801;49.414;19.474;2023-02-11T11:04:44;36.13;;;16.73;;
75218;SDS011;63801;49.414;19.474;2023-02-11T11:06:56;36.60;;;16.52;;
75218;SDS011;63801;49.414;19.474;2023-02-11T11:09:09;35.45;;;16.80;;
75218;SDS011;63801;49.414;19.474;2023-02-11T11:11:49;37.92;;;17.20;;
75218;SDS011;63801;49.414;19.474;2023-02-11T11:16:06;35.10;;;15.68;;
75218;SDS011;63801;49.414;19.474;2023-02-11T11:18:19;35.03;;;15.88;;
75218;SDS011;63801;49.414;19.474;2023-02-11T11:20:27;33.83;;;14.98;;
75218;SDS011;63801;49.414;19.474;2023-02-11T11:22:28;33.30;;;15.18;;
75218;SDS011;63801;49.414;19.474;2023-02-11T11:24:33;37.53;;;16.40;;
75218;SDS011;63801;49.414;19.474;2023-02-11T11:26:44;38.85;;;17.10;;
75218;SDS011;63801;49.414;19.474;2023-02-11T11:29:01;36.22;;;16.30;;
75218;SDS011;63801;49.414;19.474;2023-02-11T11:31:11;38.55;;;16.95;;
75218;SDS011;63801;49.414;19.474;2023-02-11T11:33:25;37.15;;;16.75;;
75218;SDS011;63801;49.414;19.474;2023-02-11T11:35:32;38.80;;;17.80;;
75218;SDS011;63801;49.414;19.474;2023-02-11T11:37:36;35.63;;;17.50;;
75218;SDS011;63801;49.414;19.474;2023-02-11T11:39:58;30.70;;;14.57;;
75218;SDS011;63801;49.414;19.474;2023-02-11T11:42:00;34.97;;;17.63;;
75218;SDS011;63801;49.414;19.474;2023-02-11T11:44:14;33.97;;;16.70;;
75218;SDS011;63801;49.414;19.474;2023-02-11T11:46:29;37.25;;;16.98;;
75218;SDS011;63801;49.414;19.474;2023-02-11T11:48:36;31.95;;;15.90;;
75218;SDS011;63801;49.414;19.474;2023-02-11T11:50:40;37.28;;;17.95;;
75218;SDS011;63801;49.414;19.474;2023-02-11T11:52:52;38.72;;;17.67;;
75218;SDS011;63801;49.414;19.474;2023-02-11T11:55:24;37.75;;;17.58;;
75218;SDS011;63801;49.414;19.474;2023-02-11T11:57:41;38.03;;;16.90;;
75218;SDS011;63801;49.414;19.474;2023-02-11T11:59:42;36.20;;;16.42;;
75218;SDS011;63801;49.414;19.474;2023-02-11T12:16:17;43.22;;;18.73;;
75218;SDS011;63801;49.414;19.474;2023-02-11T12:20:37;37.25;;;17.27;;
75218;SDS011;63801;49.414;19.474;2023-02-11T12:22:58;35.28;;;17.38;;
75218;SDS011;63801;49.414;19.474;2023-02-11T12:25:05;33.15;;;16.00;;
75218;SDS011;63801;49.414;19.474;2023-02-11T12:41:13;42.63;;;17.08;;
75218;SDS011;63801;49.414;19.474;2023-02-11T12:43:46;40.78;;;17.10;;
75218;SDS011;63801;49.414;19.474;2023-02-11T12:46:07;40.40;;;18.83;;
75218;SDS011;63801;49.414;19.474;2023-02-11T12:55:42;47.45;;;18.60;;
75218;SDS011;63801;49.414;19.474;2023-02-11T12:57:45;45.13;;;19.75;;
75218;SDS011;63801;49.414;19.474;2023-02-11T13:02:14;46.67;;;20.17;;
75218;SDS011;63801;49.414;19.474;2023-02-11T13:06:59;46.17;;;22.50;;
75218;SDS011;63801;49.414;19.474;2023-02-11T13:09:05;45.58;;;19.75;;
75218;SDS011;63801;49.414;19.474;2023-02-11T13:11:36;48.03;;;21.80;;
75218;SDS011;63801;49.414;19.474;2023-02-11T13:13:56;50.63;;;22.83;;
75218;SDS011;63801;49.414;19.474;2023-02-11T13:16:06;56.55;;;25.40;;
75218;SDS011;63801;49.414;19.474;2023-02-11T13:20:46;57.30;;;25.83;;
75218;SDS011;63801;49.414;19.474;2023-02-11T13:22:57;60.45;;;24.55;;
75218;SDS011;63801;49.414;19.474;2023-02-11T13:25:05;51.22;;;24.17;;
75218;SDS011;63801;49.414;19.474;2023-02-11T13:32:12;49.30;;;22.92;;
75218;SDS011;63801;49.414;19.474;2023-02-11T13:36:55;56.53;;;23.85;;